createdAt,value
2023-01-17T00:01:34.227Z,79.48
2023-01-17T00:04:19.381Z,79.40
2023-01-17T00:07:04.532Z,79.39
2023-01-17T00:09:49.723Z,80.31
2023-01-17T00:12:16.236Z,80.23
2023-01-17T00:14:42.628Z,80.10
2023-01-17T00:17:09.030Z,80.47
2023-01-17T00:19:54.244Z,80.00
2023-01-17T00:22:44.806Z,79.85
2023-01-17T00:25:32.026Z,80.25
2023-01-17T00:27:58.506Z,80.51
2023-01-17T00:30:25.255Z,80.46
2023-01-17T00:32:51.670Z,80.09
2023-01-17T00:35:18.114Z,79.94
2023-01-17T00:37:44.471Z,79.70
2023-01-17T00:40:11.635Z,80.27
2023-01-17T00:42:37.982Z,79.80
2023-01-17T00:45:23.871Z,79.84
2023-01-17T00:48:08.959Z,80.39
2023-01-17T00:50:55.959Z,80.90
2023-01-17T00:53:40.907Z,80.82
2023-01-17T00:56:26.076Z,80.98
2023-01-17T00:59:12.988Z,81.22
2023-01-17T01:01:58.408Z,80.96
2023-01-17T01:04:43.730Z,80.88
2023-01-17T01:07:28.936Z,81.31
2023-01-17T01:10:14.027Z,81.77
2023-01-17T01:12:59.113Z,81.68
2023-01-17T01:15:44.012Z,81.74
2023-01-17T01:18:31.083Z,81.34
2023-01-17T01:21:20.687Z,81.00
2023-01-17T01:24:05.637Z,81.18
2023-01-17T01:26:50.646Z,81.50
2023-01-17T01:29:35.887Z,80.62
2023-01-17T01:32:20.980Z,80.74
2023-01-17T01:34:47.406Z,80.29
2023-01-17T01:37:13.825Z,79.67
2023-01-17T01:39:40.226Z,79.51
2023-01-17T01:42:14.530Z,79.32
2023-01-17T01:44:50.180Z,79.75
2023-01-17T01:47:33.382Z,79.16
2023-01-17T01:50:03.317Z,79.29
2023-01-17T01:52:33.036Z,79.35
2023-01-17T01:55:04.173Z,78.91
2023-01-17T01:57:34.144Z,79.44
2023-01-17T02:00:24.834Z,78.88
2023-01-17T02:02:53.756Z,79.36
2023-01-17T02:05:23.607Z,79.00
2023-01-17T02:07:54.883Z,78.61
2023-01-17T02:10:21.514Z,78.44
2023-01-17T02:12:48.804Z,79.77
2023-01-17T02:15:15.365Z,79.29
2023-01-17T02:17:59.583Z,78.76
2023-01-17T02:20:46.275Z,79.62
2023-01-17T02:23:23.898Z,79.77
2023-01-17T02:26:26.014Z,79.35
2023-01-17T02:29:31.866Z,79.61
2023-01-17T02:32:04.960Z,79.64
2023-01-17T02:34:46.609Z,80.36
2023-01-17T02:37:19.343Z,80.02
2023-01-17T02:40:00.286Z,80.24
2023-01-17T02:42:34.120Z,80.70
2023-01-17T02:45:02.103Z,81.07
2023-01-17T02:47:30.607Z,81.61
2023-01-17T02:50:12.462Z,82.27
2023-01-17T02:53:10.834Z,83.34
2023-01-17T03:00:17.556Z,84.76
2023-01-17T03:03:06.785Z,84.41
2023-01-17T03:05:54.102Z,85.24
2023-01-17T03:08:21.104Z,84.37
2023-01-17T03:10:47.532Z,85.22
2023-01-17T03:13:14.377Z,85.17
2023-01-17T03:15:40.982Z,85.77
2023-01-17T03:18:13.408Z,85.81
2023-01-17T03:20:39.975Z,85.51
2023-01-17T03:23:06.366Z,85.41
2023-01-17T03:25:32.744Z,86.03
2023-01-17T03:27:59.248Z,86.57
2023-01-17T03:30:25.955Z,86.97
2023-01-17T03:32:52.359Z,86.63
2023-01-17T03:35:18.761Z,87.38
2023-01-17T03:37:45.151Z,86.24
2023-01-17T03:40:11.780Z,86.91
2023-01-17T03:42:38.170Z,86.66
2023-01-17T03:45:04.922Z,86.82
2023-01-17T03:47:31.306Z,86.96
2023-01-17T03:49:57.698Z,87.76
2023-01-17T03:52:24.105Z,87.98
2023-01-17T03:54:50.509Z,87.16
2023-01-17T03:57:16.905Z,87.32
2023-01-17T03:59:43.298Z,87.38
2023-01-17T04:02:09.819Z,88.83
2023-01-17T04:04:36.280Z,87.70
2023-01-17T04:07:02.655Z,88.02
2023-01-17T04:09:33.888Z,87.52
2023-01-17T04:12:00.922Z,88.28
2023-01-17T04:14:27.304Z,87.55
2023-01-17T04:16:54.100Z,88.05
2023-01-17T04:19:20.871Z,87.86
2023-01-17T04:21:47.256Z,89.51
2023-01-17T04:24:13.638Z,89.02
2023-01-17T04:26:40.040Z,90.14
2023-01-17T04:29:06.439Z,92.97
2023-01-17T04:31:32.886Z,93.08
2023-01-17T04:33:59.302Z,91.36
2023-01-17T04:36:25.675Z,90.89
2023-01-17T04:38:52.066Z,92.80
2023-01-17T04:41:18.457Z,92.52
2023-01-17T04:43:44.865Z,93.16
2023-01-17T04:46:11.345Z,92.44
2023-01-17T04:48:37.928Z,92.98
2023-01-17T04:51:05.276Z,93.58
2023-01-17T04:53:32.203Z,93.33
2023-01-17T04:55:58.669Z,93.58
2023-01-17T04:58:25.107Z,93.79
2023-01-17T05:00:51.773Z,93.66
2023-01-17T05:03:19.609Z,93.99
2023-01-17T05:05:46.589Z,95.40
2023-01-17T05:08:13.048Z,95.20
2023-01-17T05:10:39.507Z,94.13
2023-01-17T05:13:05.901Z,93.75
2023-01-17T05:15:32.609Z,93.03
2023-01-17T05:17:58.997Z,92.97
2023-01-17T05:20:26.604Z,93.00
2023-01-17T05:22:56.890Z,92.32
2023-01-17T05:25:25.343Z,91.84
2023-01-17T05:27:52.387Z,90.32
2023-01-17T05:30:19.301Z,91.37
2023-01-17T05:32:50.466Z,91.38
2023-01-17T05:35:22.124Z,91.31
2023-01-17T05:37:49.979Z,91.61
2023-01-17T05:40:18.545Z,91.06
2023-01-17T05:42:49.203Z,90.63
2023-01-17T05:45:17.069Z,91.41
2023-01-17T05:47:44.654Z,91.11
2023-01-17T05:50:18.514Z,92.13
2023-01-17T05:52:53.072Z,91.03
2023-01-17T05:55:20.304Z,91.49
2023-01-17T05:57:47.067Z,91.75
2023-01-17T06:00:14.515Z,90.96
2023-01-17T06:02:41.423Z,91.61
2023-01-17T06:05:08.089Z,92.30
2023-01-17T06:07:34.578Z,91.35
2023-01-17T06:10:01.203Z,91.80
2023-01-17T06:12:27.652Z,91.51
2023-01-17T06:14:54.050Z,91.71
2023-01-17T06:17:20.497Z,91.32
2023-01-17T06:19:46.889Z,91.96
2023-01-17T06:22:13.302Z,92.58
2023-01-17T06:24:39.679Z,91.35
2023-01-17T06:27:09.424Z,92.64
2023-01-17T06:29:35.863Z,91.04
2023-01-17T06:32:03.649Z,92.28
2023-01-17T06:34:30.056Z,92.58
2023-01-17T06:36:56.814Z,92.32
2023-01-17T06:39:23.199Z,92.19
2023-01-17T06:41:49.576Z,92.34
2023-01-17T06:44:15.968Z,92.06
2023-01-17T06:46:43.301Z,92.33
2023-01-17T06:49:09.766Z,91.59
2023-01-17T06:51:36.178Z,92.00
2023-01-17T06:54:02.590Z,91.54
2023-01-17T06:56:31.732Z,91.86
2023-01-17T06:58:58.155Z,91.72
2023-01-17T07:01:24.985Z,90.85
2023-01-17T07:03:52.441Z,91.21
2023-01-17T07:06:18.952Z,91.19
2023-01-17T07:08:45.573Z,91.74
2023-01-17T07:11:11.967Z,91.31
2023-01-17T07:13:38.881Z,90.83
2023-01-17T07:16:06.408Z,90.56
2023-01-17T07:18:33.893Z,90.35
2023-01-17T07:21:00.595Z,90.97
2023-01-17T07:23:27.187Z,90.55
2023-01-17T07:25:59.392Z,89.92
2023-01-17T07:28:27.284Z,90.56
2023-01-17T07:30:54.387Z,90.42
2023-01-17T07:33:21.095Z,90.42
2023-01-17T07:35:47.518Z,90.06
2023-01-17T07:38:16.386Z,90.08
2023-01-17T07:40:42.874Z,90.21
2023-01-17T07:43:15.340Z,89.87
2023-01-17T07:45:46.268Z,90.42
2023-01-17T07:48:12.903Z,90.76
2023-01-17T07:50:39.656Z,90.90
2023-01-17T07:53:06.037Z,90.95
2023-01-17T07:55:32.975Z,90.88
2023-01-17T07:58:00.762Z,90.19
2023-01-17T08:00:28.964Z,90.76
2023-01-17T08:02:57.261Z,90.67
2023-01-17T08:05:23.988Z,90.18
2023-01-17T08:07:50.418Z,90.91
2023-01-17T08:10:18.037Z,91.31
2023-01-17T08:12:48.579Z,91.15
2023-01-17T08:15:16.488Z,91.19
2023-01-17T08:17:49.903Z,90.79
2023-01-17T08:20:16.620Z,90.54
2023-01-17T08:22:43.010Z,90.22
2023-01-17T08:25:09.804Z,90.67
2023-01-17T08:27:36.410Z,90.09
2023-01-17T08:30:03.594Z,89.55
2023-01-17T08:32:29.982Z,89.52
2023-01-17T08:34:57.143Z,89.08
2023-01-17T08:37:23.712Z,89.35
2023-01-17T08:39:50.264Z,88.14
2023-01-17T08:42:16.701Z,88.35
2023-01-17T08:44:43.614Z,88.30
2023-01-17T08:47:10.439Z,88.37
2023-01-17T08:49:36.838Z,88.47
2023-01-17T08:52:03.550Z,87.68
2023-01-17T08:54:29.941Z,87.67
2023-01-17T08:56:56.362Z,87.89
2023-01-17T08:59:22.791Z,86.71
2023-01-17T09:01:49.299Z,87.36
2023-01-17T09:04:15.970Z,86.17
2023-01-17T09:06:45.288Z,86.53
2023-01-17T09:09:11.685Z,86.47
2023-01-17T09:11:38.257Z,84.50
2023-01-17T09:14:04.803Z,84.76
2023-01-17T09:16:31.456Z,84.47
2023-01-17T09:18:59.317Z,84.21
2023-01-17T09:21:26.761Z,83.22
2023-01-17T09:23:53.427Z,84.89
2023-01-17T09:26:25.428Z,85.59
2023-01-17T09:28:52.347Z,87.25
2023-01-17T09:31:22.992Z,87.01
2023-01-17T09:33:51.247Z,87.67
2023-01-17T09:36:18.018Z,87.20
2023-01-17T09:38:44.624Z,87.22
2023-01-17T09:41:22.031Z,86.28
2023-01-17T09:43:55.156Z,86.60
2023-01-17T09:46:26.564Z,87.03
2023-01-17T09:49:03.536Z,86.03
2023-01-17T09:51:30.114Z,86.96
2023-01-17T09:53:56.536Z,86.87
2023-01-17T09:56:31.089Z,87.13
2023-01-17T09:59:20.795Z,87.70
2023-01-17T10:01:52.382Z,87.68
2023-01-17T10:04:37.892Z,87.19
2023-01-17T10:07:17.891Z,87.29
2023-01-17T10:10:04.835Z,87.70
2023-01-17T10:12:53.598Z,87.87
2023-01-17T10:16:01.580Z,87.82
2023-01-17T10:19:05.705Z,87.37
2023-01-17T10:21:55.622Z,87.79
2023-01-17T10:24:31.152Z,87.48
2023-01-17T10:27:01.457Z,86.97
2023-01-17T10:29:34.320Z,86.09
2023-01-17T10:32:02.697Z,86.08
2023-01-17T10:34:40.126Z,86.17
2023-01-17T10:37:34.788Z,87.49
2023-01-17T10:40:15.698Z,89.22
2023-01-17T10:42:55.852Z,90.84
2023-01-17T10:45:28.935Z,91.36
2023-01-17T10:48:09.121Z,90.97
2023-01-17T10:50:46.832Z,91.43
2023-01-17T10:53:34.088Z,92.53
2023-01-17T10:56:01.980Z,91.66
2023-01-17T10:58:28.407Z,92.08
2023-01-17T11:01:19.408Z,93.52
2023-01-17T11:03:50.980Z,96.10
2023-01-17T11:06:20.918Z,95.22
2023-01-17T11:08:58.564Z,97.30
2023-01-17T11:11:31.957Z,97.72
2023-01-17T11:14:18.613Z,99.25
2023-01-17T11:16:45.163Z,100.00
2023-01-17T11:19:26.671Z,100.00
2023-01-17T11:22:02.425Z,100.00
2023-01-17T11:24:36.442Z,100.00
2023-01-17T11:27:05.672Z,100.00
2023-01-17T11:29:35.994Z,100.00
2023-01-17T11:32:26.511Z,100.00
2023-01-17T11:35:25.595Z,100.00
2023-01-17T11:37:56.505Z,100.00
2023-01-17T11:40:28.516Z,100.00
2023-01-17T11:43:11.372Z,100.00
2023-01-17T11:45:39.582Z,100.00
2023-01-17T11:48:09.052Z,100.00
2023-01-17T11:50:39.791Z,100.00
2023-01-17T11:53:16.258Z,100.00
2023-01-17T11:56:05.752Z,100.00
2023-01-17T11:58:38.369Z,100.00
2023-01-17T12:01:32.762Z,100.00
2023-01-17T12:04:24.104Z,100.00
2023-01-17T12:07:20.371Z,100.00
2023-01-17T12:10:03.582Z,99.59
2023-01-17T12:13:14.514Z,96.07
2023-01-17T12:16:01.687Z,92.90
2023-01-17T12:19:16.596Z,93.64
2023-01-17T12:22:12.624Z,89.51
2023-01-17T12:25:06.927Z,89.52
2023-01-17T12:27:47.678Z,89.66
2023-01-17T12:30:42.927Z,87.31
2023-01-17T12:33:19.926Z,86.68
2023-01-17T12:35:56.991Z,85.92
2023-01-17T12:38:32.978Z,85.79
2023-01-17T12:41:23.351Z,85.54
2023-01-17T12:43:54.040Z,85.68
2023-01-17T12:46:27.165Z,85.86
2023-01-17T12:48:58.169Z,85.72
2023-01-17T12:51:33.137Z,85.49
2023-01-17T12:54:08.633Z,85.91
2023-01-17T12:56:48.573Z,84.85
2023-01-17T12:59:22.209Z,85.92
2023-01-17T13:01:58.956Z,86.15
2023-01-17T13:04:32.963Z,87.25
2023-01-17T13:06:59.461Z,86.29
2023-01-17T13:09:33.637Z,85.86
2023-01-17T13:12:18.655Z,86.71
2023-01-17T13:14:48.643Z,83.72
2023-01-17T13:17:38.816Z,84.64
2023-01-17T13:20:33.279Z,84.10
2023-01-17T13:23:53.953Z,82.70
2023-01-17T13:26:50.953Z,82.62
2023-01-17T13:29:29.428Z,82.57
2023-01-17T13:32:23.122Z,82.67
2023-01-17T13:35:02.022Z,82.04
2023-01-17T13:37:47.791Z,82.06
2023-01-17T13:40:29.553Z,82.82
2023-01-17T13:43:05.187Z,81.74
2023-01-17T13:45:36.618Z,82.54
2023-01-17T13:48:12.218Z,81.86
2023-01-17T13:50:38.533Z,81.53
2023-01-17T13:53:35.669Z,80.90
2023-01-17T13:56:18.821Z,80.53
2023-01-17T13:58:47.030Z,80.19
2023-01-17T14:01:13.559Z,78.86
2023-01-17T14:03:48.982Z,79.33
2023-01-17T14:06:44.518Z,77.42
2023-01-17T14:09:22.907Z,78.08
2023-01-17T14:11:52.622Z,78.38
2023-01-17T14:14:43.680Z,79.25
2023-01-17T14:17:16.296Z,78.11
2023-01-17T14:19:48.090Z,78.28
2023-01-17T14:22:24.401Z,78.34
2023-01-17T14:25:10.875Z,78.70
2023-01-17T14:27:49.835Z,78.73
2023-01-17T14:30:24.877Z,78.68
2023-01-17T14:33:03.148Z,78.22
2023-01-17T14:35:31.597Z,78.07
2023-01-17T14:37:59.743Z,78.86
2023-01-17T14:40:30.500Z,78.49
2023-01-17T14:43:02.584Z,78.17
2023-01-17T14:45:31.791Z,77.76
2023-01-17T14:48:00.842Z,77.37
2023-01-17T14:50:39.238Z,77.14
2023-01-17T14:53:11.479Z,76.85
2023-01-17T14:55:52.421Z,76.43
2023-01-17T14:58:21.823Z,76.35
2023-01-17T15:00:51.446Z,76.20
2023-01-17T15:03:18.012Z,76.86
2023-01-17T15:05:51.254Z,76.24
2023-01-17T15:08:22.069Z,76.37
2023-01-17T15:10:56.173Z,75.96
2023-01-17T15:13:44.376Z,76.70
2023-01-17T15:16:26.171Z,76.44
2023-01-17T15:18:53.402Z,76.63
2023-01-17T15:21:22.551Z,76.94
2023-01-17T15:23:55.313Z,77.55
2023-01-17T15:26:25.078Z,77.71
2023-01-17T15:28:53.296Z,78.02
2023-01-17T15:31:37.700Z,77.98
2023-01-17T15:34:08.069Z,79.43
2023-01-17T15:36:35.201Z,80.43
2023-01-17T15:39:19.089Z,78.69
2023-01-17T15:41:47.201Z,78.84
2023-01-17T15:44:48.940Z,78.30
2023-01-17T15:47:38.455Z,78.19
2023-01-17T15:50:20.315Z,77.48
2023-01-17T15:52:51.325Z,77.21
2023-01-17T15:55:29.381Z,79.19
2023-01-17T15:57:55.789Z,79.05
2023-01-17T16:00:32.314Z,79.58
2023-01-17T16:02:59.401Z,81.20
2023-01-17T16:05:27.556Z,80.76
2023-01-17T16:07:56.765Z,80.63
2023-01-17T16:10:29.024Z,81.74
2023-01-17T16:12:56.168Z,81.99
2023-01-17T16:15:23.592Z,82.41
2023-01-17T16:17:53.489Z,82.29
2023-01-17T16:20:24.860Z,81.83
2023-01-17T16:22:51.647Z,82.54
2023-01-17T16:25:20.856Z,82.22
2023-01-17T16:27:48.558Z,83.13
2023-01-17T16:30:18.183Z,82.60
2023-01-17T16:32:48.897Z,83.35
2023-01-17T16:35:23.656Z,83.99
2023-01-17T16:37:55.161Z,83.26
2023-01-17T16:40:24.231Z,82.32
2023-01-17T16:42:50.797Z,82.43
2023-01-17T16:45:18.654Z,82.87
2023-01-17T16:47:46.761Z,83.68
2023-01-17T16:50:15.664Z,82.83
2023-01-17T16:52:42.235Z,83.85
2023-01-17T16:55:14.064Z,83.77
2023-01-17T16:57:40.451Z,83.80
2023-01-17T17:00:08.203Z,82.76
2023-01-17T17:02:34.899Z,83.41
2023-01-17T17:05:01.334Z,83.86
2023-01-17T17:07:27.728Z,83.35
2023-01-17T17:09:54.174Z,83.48
2023-01-17T17:12:20.554Z,84.05
2023-01-17T17:14:46.969Z,84.23
2023-01-17T17:17:13.396Z,83.81
2023-01-17T17:19:39.813Z,83.15
2023-01-17T17:22:06.577Z,82.49
2023-01-17T17:24:33.512Z,83.03
2023-01-17T17:27:00.104Z,83.18
2023-01-17T17:29:26.504Z,83.54
2023-01-17T17:31:53.760Z,83.39
2023-01-17T17:34:20.763Z,83.28
2023-01-17T17:36:47.169Z,83.49
2023-01-17T17:39:17.373Z,84.30
2023-01-17T17:41:45.643Z,83.43
2023-01-17T17:44:12.425Z,83.14
2023-01-17T17:46:38.924Z,83.96
2023-01-17T17:49:06.653Z,83.79
2023-01-17T17:51:35.633Z,83.53
2023-01-17T17:54:05.261Z,84.07
2023-01-17T17:56:32.792Z,83.61
2023-01-17T17:59:00.961Z,83.51
2023-01-17T18:01:27.975Z,83.36
2023-01-17T18:03:57.168Z,83.91
2023-01-17T18:06:24.260Z,84.15
2023-01-17T18:08:52.121Z,84.00
2023-01-17T18:11:21.774Z,83.90
2023-01-17T18:13:50.498Z,84.25
2023-01-17T18:16:23.124Z,84.61
2023-01-17T18:18:52.536Z,84.51
2023-01-17T18:21:26.968Z,84.30
2023-01-17T18:23:58.775Z,82.06
2023-01-17T18:26:37.869Z,82.11
2023-01-17T18:29:06.329Z,83.01
2023-01-17T18:31:33.822Z,82.93
2023-01-17T18:34:05.140Z,83.52
2023-01-17T18:36:31.546Z,83.44
2023-01-17T18:38:57.954Z,83.58
2023-01-17T18:41:30.776Z,84.69
2023-01-17T18:43:57.881Z,84.78
2023-01-17T18:46:25.979Z,84.96
2023-01-17T18:48:55.458Z,84.62
2023-01-17T18:51:21.999Z,84.58
2023-01-17T18:53:48.457Z,84.65
2023-01-17T18:56:18.241Z,84.84
2023-01-17T18:58:46.645Z,83.96
2023-01-17T19:01:14.375Z,84.22
2023-01-17T19:03:43.525Z,84.53
2023-01-17T19:06:12.701Z,84.75
2023-01-17T19:08:40.060Z,84.41
2023-01-17T19:11:06.888Z,83.59
2023-01-17T19:13:36.099Z,83.27
2023-01-17T19:16:08.205Z,83.47
2023-01-17T19:18:35.005Z,83.18
2023-01-17T19:21:12.747Z,83.87
2023-01-17T19:23:39.668Z,83.99
2023-01-17T19:26:08.341Z,84.18
2023-01-17T19:28:42.232Z,84.01
2023-01-17T19:31:16.512Z,83.79
2023-01-17T19:33:45.125Z,83.01
2023-01-17T19:36:16.981Z,82.36
2023-01-17T19:38:52.298Z,82.28
2023-01-17T19:41:27.216Z,83.15
2023-01-17T19:43:58.215Z,83.89
2023-01-17T19:46:27.213Z,84.42
2023-01-17T19:48:55.323Z,84.10
2023-01-17T19:51:22.195Z,84.25
2023-01-17T19:53:48.609Z,83.97
2023-01-17T19:56:20.471Z,84.93
2023-01-17T19:58:47.706Z,84.45
2023-01-17T20:01:26.560Z,84.80
2023-01-17T20:03:53.039Z,84.92
2023-01-17T20:06:22.569Z,85.19
2023-01-17T20:08:49.268Z,84.61
2023-01-17T20:11:19.547Z,84.60
2023-01-17T20:13:47.217Z,83.81
2023-01-17T20:16:15.423Z,83.55
2023-01-17T20:18:42.636Z,83.36
2023-01-17T20:21:21.109Z,83.72
2023-01-17T20:23:48.798Z,83.55
2023-01-17T20:26:17.837Z,84.43
2023-01-17T20:28:48.826Z,85.13
2023-01-17T20:31:17.742Z,85.12
2023-01-17T20:33:45.547Z,85.53
2023-01-17T20:36:14.820Z,85.35
2023-01-17T20:38:45.078Z,84.61
2023-01-17T20:41:23.299Z,84.66
2023-01-17T20:43:52.789Z,84.52
2023-01-17T20:46:21.597Z,83.89
2023-01-17T20:48:50.675Z,84.50
2023-01-17T20:51:18.388Z,84.67
2023-01-17T20:53:46.035Z,84.75
2023-01-17T20:56:14.949Z,84.86
2023-01-17T20:58:42.309Z,83.65
2023-01-17T21:01:10.883Z,83.00
2023-01-17T21:03:38.523Z,83.50
2023-01-17T21:06:06.172Z,84.43
2023-01-17T21:08:34.918Z,83.81
2023-01-17T21:11:01.407Z,83.89
2023-01-17T21:13:27.944Z,84.59
2023-01-17T21:15:55.115Z,84.90
2023-01-17T21:18:23.968Z,85.57
2023-01-17T21:20:50.579Z,85.71
2023-01-17T21:23:17.963Z,84.43
2023-01-17T21:25:55.670Z,85.30
2023-01-17T21:28:27.309Z,85.17
2023-01-17T21:30:54.609Z,84.39
2023-01-17T21:33:22.703Z,84.05
2023-01-17T21:35:49.122Z,83.92
2023-01-17T21:38:16.185Z,83.41
2023-01-17T21:40:43.644Z,84.09
2023-01-17T21:43:11.166Z,84.18
2023-01-17T21:45:38.643Z,84.56
2023-01-17T21:48:06.666Z,84.97
2023-01-17T21:50:34.092Z,84.74
2023-01-17T21:53:00.839Z,85.63
2023-01-17T21:55:45.618Z,85.48
2023-01-17T21:58:32.787Z,85.58
2023-01-17T22:01:08.905Z,85.75
2023-01-17T22:03:35.865Z,85.93
2023-01-17T22:06:02.493Z,85.48
2023-01-17T22:08:37.774Z,85.37
2023-01-17T22:11:10.727Z,85.45
2023-01-17T22:13:38.222Z,85.80
2023-01-17T22:16:07.239Z,84.61
2023-01-17T22:18:36.998Z,85.63
2023-01-17T22:21:06.448Z,85.60
2023-01-17T22:23:33.665Z,85.25
2023-01-17T22:26:05.413Z,84.31
2023-01-17T22:28:32.930Z,83.86
2023-01-17T22:31:21.259Z,84.92
2023-01-17T22:33:53.097Z,85.14
2023-01-17T22:36:20.175Z,85.69
2023-01-17T22:38:47.231Z,85.16
2023-01-17T22:41:16.497Z,85.36
2023-01-17T22:43:45.284Z,84.97
2023-01-17T22:46:14.037Z,84.95
2023-01-17T22:48:40.475Z,84.83
2023-01-17T22:51:09.694Z,84.57
2023-01-17T22:53:44.158Z,83.73
2023-01-17T22:56:13.582Z,84.63
2023-01-17T22:58:44.478Z,84.71
2023-01-17T23:01:31.260Z,85.42
2023-01-17T23:03:59.421Z,84.43
2023-01-17T23:06:28.669Z,83.67
2023-01-17T23:08:58.227Z,84.35
2023-01-17T23:11:46.147Z,83.54
2023-01-17T23:14:23.570Z,85.79
2023-01-17T23:17:17.288Z,84.39
2023-01-17T23:19:49.371Z,83.04
2023-01-17T23:22:19.309Z,83.06
2023-01-17T23:24:54.838Z,83.17
2023-01-17T23:27:45.411Z,84.60
2023-01-17T23:30:14.773Z,84.45
2023-01-17T23:32:47.171Z,84.17
2023-01-17T23:35:14.568Z,83.26
2023-01-17T23:37:59.348Z,84.28
2023-01-17T23:40:25.802Z,83.79
2023-01-17T23:43:11.086Z,83.33
2023-01-17T23:45:38.935Z,84.59
2023-01-17T23:48:09.139Z,83.68
2023-01-17T23:50:37.202Z,82.76
2023-01-17T23:53:09.264Z,84.54
2023-01-17T23:55:40.781Z,84.24
2023-01-17T23:58:09.656Z,83.00
